Аэропорт: Омск-Центральный. Омск

ICAO: UNOO

METAR:
2019-09-21 15:30:00
UNOO 211530Z 13002MPS 6000 SCT033CB 11/04 Q1017 R25/CLRD60 NOSIG RMK QFE755
METAR:
2019-09-21 13:40:00
TAF UNOO 211340Z 2115/2215 16003G08MPS 6000 SCT030CB BKN033 TEMPO 2115/2120 3100 FU BECMG 2120/2121 15006G13MPS TEMPO 2200/2215 15016MPS 4000 -SHRA SCT012 BKN030CB